BIIS

Ísafjörður  Airport

Ísafjörður, Iceland

BIIS 191621Z 03013G23KT 9999 VCSH BKN025 BKN030 01/M06 Q1026 R88/790293

Observed Flight Rules
Nov-19 @ 16:21 UTC (2 hours ago)
 
Marginal Visual Flight Rules
Wind Visibility Clouds
30° at 13 knots
 Gusting to 23 knots
10,000+ meters
  • Broken at 2,500' AGL
  • Broken at 3,000' AGL
Temperatures Readings
Current 1°C / 34°F
Dewpoint -6°C / 21°F
Humidity 60%
Altimeter 30.3" Hg
Pressure 1026 hPa
Elevation 3
Observed Flight Rules
Nov-19 @ 16:21 UTC
(2 hours ago)
 
MVFR
Wind Visibility
30° at 13 knots
 Gusting to 23 knots
10,000+ meters
Clouds
  • Broken at 2,500' AGL
  • Broken at 3,000' AGL
Temperature Dewpoint
1°C / 34°F -6°C / 21°F
Humidity Altimeter Pressure
60% 30.3" Hg 1026 hPa